createdAt,value
2023-10-21T00:01:06.599Z,97669.53
2023-10-21T00:03:34.522Z,97672.28
2023-10-21T00:06:02.485Z,97670.50
2023-10-21T00:08:30.476Z,97673.09
2023-10-21T00:11:05.390Z,97677.50
2023-10-21T00:13:34.522Z,97670.50
2023-10-21T00:16:02.269Z,97682.53
2023-10-21T00:18:30.197Z,97678.31
2023-10-21T00:20:58.143Z,97680.91
2023-10-21T00:23:26.104Z,97687.94
2023-10-21T00:25:53.869Z,97685.31
2023-10-21T00:28:21.607Z,97692.00
2023-10-21T00:30:50.940Z,97691.03
2023-10-21T00:33:18.782Z,97684.19
2023-10-21T00:35:47.365Z,97695.25
2023-10-21T00:38:15.277Z,97685.47
2023-10-21T00:40:51.739Z,97706.00
2023-10-21T00:43:35.920Z,97696.19
2023-10-21T00:46:08.333Z,97706.31
2023-10-21T00:48:36.194Z,97706.81
2023-10-21T00:51:04.216Z,97692.44
2023-10-21T00:53:33.550Z,97707.63
2023-10-21T00:56:01.471Z,97708.94
2023-10-21T00:58:32.207Z,97710.28
2023-10-21T01:01:00.271Z,97714.38
2023-10-21T01:03:29.802Z,97719.25
2023-10-21T01:05:57.807Z,97710.59
2023-10-21T01:08:26.011Z,97729.22
2023-10-21T01:10:53.951Z,97729.03
2023-10-21T01:13:21.809Z,97726.28
2023-10-21T01:15:49.597Z,97728.72
2023-10-21T01:18:17.459Z,97733.94
2023-10-21T01:20:46.731Z,97742.41
2023-10-21T01:23:16.641Z,97739.00
2023-10-21T01:25:44.871Z,97744.56
2023-10-21T01:28:13.366Z,97746.22
2023-10-21T01:30:41.116Z,97747.69
2023-10-21T01:33:08.970Z,97749.16
2023-10-21T01:35:36.806Z,97752.44
2023-10-21T01:38:05.129Z,97756.38
2023-10-21T01:40:34.296Z,97758.97
2023-10-21T01:43:02.922Z,97756.22
2023-10-21T01:45:30.819Z,97766.34
2023-10-21T01:47:59.307Z,97761.97
2023-10-21T01:50:27.116Z,97764.22
2023-10-21T01:52:55.581Z,97763.09
2023-10-21T01:55:23.376Z,97770.75
2023-10-21T01:57:52.783Z,97774.69
2023-10-21T02:00:21.643Z,97779.91
2023-10-21T02:02:54.219Z,97787.59
2023-10-21T02:05:23.173Z,97784.00
2023-10-21T02:07:52.045Z,97788.38
2023-10-21T02:10:22.206Z,97798.50
2023-10-21T02:12:49.990Z,97795.75
2023-10-21T02:15:19.177Z,97806.19
2023-10-21T02:17:47.585Z,97807.81
2023-10-21T02:20:16.505Z,97809.59
2023-10-21T02:22:44.616Z,97814.66
2023-10-21T02:25:15.850Z,97819.06
2023-10-21T02:27:44.343Z,97821.00
2023-10-21T02:30:14.772Z,97826.53
2023-10-21T02:32:46.278Z,97831.25
2023-10-21T02:35:14.409Z,97828.28
2023-10-21T02:37:43.046Z,97833.63
2023-10-21T02:40:12.403Z,97843.44
2023-10-21T02:42:40.191Z,97847.31
2023-10-21T02:45:08.932Z,97840.59
2023-10-21T02:47:37.573Z,97852.16
2023-10-21T02:50:08.073Z,97850.81
2023-10-21T02:52:37.663Z,97855.69
2023-10-21T02:55:06.641Z,97855.97
2023-10-21T02:57:34.386Z,97865.88
2023-10-21T03:00:02.196Z,97865.06
2023-10-21T03:02:30.178Z,97875.81
2023-10-21T03:04:58.006Z,97877.75
2023-10-21T03:07:27.098Z,97877.75
2023-10-21T03:09:54.847Z,97889.13
2023-10-21T03:12:22.610Z,97883.91
2023-10-21T03:14:50.425Z,97886.53
2023-10-21T03:17:18.257Z,97888.97
2023-10-21T03:19:46.016Z,97897.63
2023-10-21T03:22:13.770Z,97888.84
2023-10-21T03:24:42.913Z,97900.88
2023-10-21T03:27:10.649Z,97901.84
2023-10-21T03:29:38.518Z,97908.72
2023-10-21T03:32:06.909Z,97910.47
2023-10-21T03:34:35.061Z,97908.03
2023-10-21T03:37:03.052Z,97925.16
2023-10-21T03:39:30.999Z,97920.78
2023-10-21T03:42:00.357Z,97925.97
2023-10-21T03:44:28.221Z,97932.97
2023-10-21T03:46:56.030Z,97934.75
2023-10-21T03:49:24.105Z,97937.22
2023-10-21T03:51:51.895Z,97944.22
2023-10-21T03:54:19.740Z,97953.69
2023-10-21T03:56:47.595Z,97958.88
2023-10-21T03:59:16.750Z,97956.28
2023-10-21T04:01:44.498Z,97964.09
2023-10-21T04:04:12.359Z,97964.91
2023-10-21T04:06:40.194Z,97970.94
2023-10-21T04:09:09.262Z,97973.56
2023-10-21T04:11:37.173Z,97979.44
2023-10-21T04:14:06.264Z,97987.94
2023-10-21T04:16:35.357Z,97994.78
2023-10-21T04:19:03.095Z,97995.59
2023-10-21T04:21:30.850Z,98007.81
2023-10-21T04:23:58.654Z,98008.59
2023-10-21T04:26:26.445Z,98006.69
2023-10-21T04:28:54.872Z,98014.38
2023-10-21T04:31:22.691Z,98010.13
2023-10-21T04:33:52.206Z,98019.56
2023-10-21T04:36:20.256Z,98016.97
2023-10-21T04:38:48.057Z,98033.56
2023-10-21T04:41:15.905Z,98037.66
2023-10-21T04:43:43.617Z,98035.06
2023-10-21T04:46:12.556Z,98026.44
2023-10-21T04:48:40.444Z,98039.47
2023-10-21T04:51:10.331Z,98048.91
2023-10-21T04:53:38.635Z,98051.53
2023-10-21T04:56:06.998Z,98050.56
2023-10-21T04:58:35.262Z,98058.38
2023-10-21T05:01:04.085Z,98065.22
2023-10-21T05:03:32.123Z,98068.81
2023-10-21T05:05:59.972Z,98077.13
2023-10-21T05:08:29.070Z,98084.81
2023-10-21T05:10:56.837Z,98088.22
2023-10-21T05:13:24.787Z,98091.53
2023-10-21T05:15:52.592Z,98097.44
2023-10-21T05:18:21.024Z,98106.88
2023-10-21T05:20:48.836Z,98101.53
2023-10-21T05:23:16.807Z,98109.38
2023-10-21T05:25:45.878Z,98116.19
2023-10-21T05:28:13.660Z,98111.63
2023-10-21T05:30:43.531Z,98108.91
2023-10-21T05:33:11.561Z,98113.94
2023-10-21T05:35:39.526Z,98123.56
2023-10-21T05:38:07.293Z,98127.16
2023-10-21T05:40:36.389Z,98134.16
2023-10-21T05:43:05.661Z,98143.91
2023-10-21T05:45:33.475Z,98139.97
2023-10-21T05:48:01.413Z,98138.34
2023-10-21T05:50:29.259Z,98154.38
2023-10-21T05:52:57.768Z,98150.28
2023-10-21T05:55:25.729Z,98162.63
2023-10-21T05:57:53.560Z,98159.50
2023-10-21T06:00:22.993Z,98172.00
2023-10-21T06:02:50.943Z,98184.38
2023-10-21T06:05:18.886Z,98175.78
2023-10-21T06:07:46.612Z,98200.41
2023-10-21T06:10:15.205Z,98198.94
2023-10-21T06:12:45.275Z,98211.28
2023-10-21T06:15:15.304Z,98218.44
2023-10-21T06:17:44.490Z,98221.03
2023-10-21T06:20:13.119Z,98219.41
2023-10-21T06:22:40.889Z,98228.84
2023-10-21T06:25:09.368Z,98231.31
2023-10-21T06:27:38.167Z,98227.88
2023-10-21T06:30:06.753Z,98244.22
2023-10-21T06:32:34.563Z,98245.97
2023-10-21T06:35:03.950Z,98251.88
2023-10-21T06:37:31.689Z,98253.50
2023-10-21T06:39:59.409Z,98258.59
2023-10-21T06:42:27.272Z,98263.66
2023-10-21T06:44:55.092Z,98262.56
2023-10-21T06:47:22.830Z,98271.56
2023-10-21T06:49:50.617Z,98277.19
2023-10-21T06:52:21.329Z,98284.63
2023-10-21T06:54:49.164Z,98285.56
2023-10-21T06:57:21.820Z,98293.34
2023-10-21T06:59:49.775Z,98306.78
2023-10-21T07:02:18.400Z,98307.31
2023-10-21T07:04:46.273Z,98318.13
2023-10-21T07:07:14.095Z,98321.81
2023-10-21T07:09:43.205Z,98326.59
2023-10-21T07:12:13.135Z,98326.44
2023-10-21T07:14:41.097Z,98333.59
2023-10-21T07:17:09.547Z,98334.28
2023-10-21T07:19:37.360Z,98336.06
2023-10-21T07:22:05.508Z,98339.47
2023-10-21T07:24:33.796Z,98345.00
2023-10-21T07:27:03.416Z,98357.47
2023-10-21T07:29:32.886Z,98358.13
2023-10-21T07:32:00.607Z,98358.91
2023-10-21T07:34:28.348Z,98364.22
2023-10-21T07:36:56.098Z,98368.13
2023-10-21T07:39:23.890Z,98373.63
2023-10-21T07:41:51.806Z,98382.53
2023-10-21T07:44:23.032Z,98393.66
2023-10-21T07:46:52.430Z,98391.88
2023-10-21T07:49:20.249Z,98390.91
2023-10-21T07:51:49.666Z,98410.16
2023-10-21T07:54:17.633Z,98400.13
2023-10-21T07:56:48.146Z,98407.19
2023-10-21T07:59:17.283Z,98411.63
2023-10-21T08:01:46.721Z,98418.34
2023-10-21T08:04:14.568Z,98418.13
2023-10-21T08:06:44.839Z,98428.72
2023-10-21T08:09:15.569Z,98422.44
2023-10-21T08:11:44.280Z,98438.22
2023-10-21T08:14:12.373Z,98477.81
2023-10-21T08:16:40.356Z,98464.09
2023-10-21T08:19:12.308Z,98481.47
2023-10-21T08:21:40.416Z,98482.03
2023-10-21T08:24:09.767Z,98464.59
2023-10-21T08:26:37.511Z,98471.19
2023-10-21T08:29:08.241Z,98480.66
2023-10-21T08:31:36.054Z,98484.75
2023-10-21T08:34:03.902Z,98482.00
2023-10-21T08:36:33.418Z,98500.53
2023-10-21T08:39:01.360Z,98512.47
2023-10-21T08:41:31.186Z,98501.06
2023-10-21T08:43:58.954Z,98509.16
2023-10-21T08:46:27.378Z,98517.97
2023-10-21T08:48:55.355Z,98517.97
2023-10-21T08:51:23.574Z,98531.41
2023-10-21T08:53:55.156Z,98529.03
2023-10-21T08:56:23.465Z,98529.84
2023-10-21T08:58:52.305Z,98528.19
2023-10-21T09:01:20.084Z,98529.13
2023-10-21T09:03:49.193Z,98536.41
2023-10-21T09:06:19.178Z,98543.88
2023-10-21T09:08:48.546Z,98551.91
2023-10-21T09:11:20.022Z,98551.38
2023-10-21T09:13:48.205Z,98557.44
2023-10-21T09:16:21.615Z,98555.34
2023-10-21T09:19:00.743Z,98544.56
2023-10-21T09:21:46.833Z,98563.50
2023-10-21T09:24:23.102Z,98566.34
2023-10-21T09:26:53.112Z,98560.41
2023-10-21T09:29:23.549Z,98568.03
2023-10-21T09:31:53.811Z,98534.25
2023-10-21T09:34:26.848Z,98581.25
2023-10-21T09:36:54.971Z,98578.16
2023-10-21T09:39:23.562Z,98588.56
2023-10-21T09:41:53.343Z,98591.31
2023-10-21T09:44:21.648Z,98597.13
2023-10-21T09:46:50.563Z,98593.91
2023-10-21T09:49:18.645Z,98603.25
2023-10-21T09:51:52.352Z,98609.88
2023-10-21T09:54:25.714Z,98611.16
2023-10-21T09:56:55.415Z,98621.16
2023-10-21T09:59:24.196Z,98618.53
2023-10-21T10:01:53.267Z,98629.88
2023-10-21T10:04:23.763Z,98613.75
2023-10-21T10:07:05.483Z,98620.19
2023-10-21T10:09:34.799Z,98618.94
2023-10-21T10:12:08.431Z,98622.78
2023-10-21T10:14:36.196Z,98629.91
2023-10-21T10:17:06.957Z,98631.31
2023-10-21T10:19:38.521Z,98617.25
2023-10-21T10:22:20.127Z,98617.28
2023-10-21T10:24:53.092Z,98621.63
2023-10-21T10:27:23.325Z,98635.94
2023-10-21T10:29:52.374Z,98633.41
2023-10-21T10:32:21.542Z,98642.28
2023-10-21T10:34:54.547Z,98647.59
2023-10-21T10:37:27.841Z,98657.00
2023-10-21T10:39:56.498Z,98658.69
2023-10-21T10:42:29.427Z,98661.13
2023-10-21T10:44:57.098Z,98659.31
2023-10-21T10:47:25.160Z,98659.84
2023-10-21T10:49:55.519Z,98674.22
2023-10-21T10:52:32.750Z,98679.91
2023-10-21T10:55:00.670Z,98686.41
2023-10-21T10:57:30.139Z,98683.56
2023-10-21T10:59:58.833Z,98681.00
2023-10-21T11:02:30.109Z,98685.31
2023-10-21T11:04:59.933Z,98672.75
2023-10-21T11:07:31.350Z,98679.47
2023-10-21T11:10:02.718Z,98682.94
2023-10-21T11:12:32.237Z,98678.53
2023-10-21T11:15:01.788Z,98689.34
2023-10-21T11:17:31.073Z,98690.69
2023-10-21T11:19:59.662Z,98691.28
2023-10-21T11:22:29.359Z,98706.56
2023-10-21T11:24:57.123Z,98702.69
2023-10-21T11:27:25.156Z,98693.94
2023-10-21T11:29:54.914Z,98718.63
2023-10-21T11:32:26.769Z,98704.91
2023-10-21T11:34:54.738Z,98707.31
2023-10-21T11:37:22.527Z,98721.44
2023-10-21T11:39:51.005Z,98703.72
2023-10-21T11:42:19.779Z,98699.78
2023-10-21T11:44:57.728Z,98712.09
2023-10-21T11:47:27.501Z,98720.88
2023-10-21T11:49:56.280Z,98703.38
2023-10-21T11:52:25.252Z,98706.66
2023-10-21T11:55:14.508Z,98710.81
2023-10-21T11:57:56.717Z,98696.09
2023-10-21T12:00:48.148Z,98698.25
2023-10-21T12:03:35.873Z,98687.22
2023-10-21T12:06:21.404Z,98688.06
2023-10-21T12:09:07.064Z,98684.16
2023-10-21T12:11:57.647Z,98687.75
2023-10-21T12:14:59.620Z,98707.16
2023-10-21T12:17:46.702Z,98695.66
2023-10-21T12:20:32.588Z,98711.75
2023-10-21T12:23:32.502Z,98704.13
2023-10-21T12:26:22.914Z,98718.19
2023-10-21T12:29:13.566Z,98727.19
2023-10-21T12:31:54.129Z,98729.50
2023-10-21T12:34:44.423Z,98727.94
2023-10-21T12:37:29.996Z,98722.63
2023-10-21T12:40:21.428Z,98719.69
2023-10-21T12:42:50.190Z,98731.50
2023-10-21T12:45:20.917Z,98716.91
2023-10-21T12:47:49.356Z,98709.91
2023-10-21T12:50:18.576Z,98710.38
2023-10-21T12:52:49.648Z,98715.81
2023-10-21T12:55:17.730Z,98718.94
2023-10-21T12:57:45.809Z,98713.06
2023-10-21T13:00:16.725Z,98716.81
2023-10-21T13:02:44.947Z,98717.47
2023-10-21T13:05:13.241Z,98714.66
2023-10-21T13:07:42.401Z,98710.91
2023-10-21T13:10:10.952Z,98722.06
2023-10-21T13:12:39.354Z,98720.41
2023-10-21T13:15:13.079Z,98739.28
2023-10-21T13:17:41.103Z,98725.09
2023-10-21T13:20:17.403Z,98729.22
2023-10-21T13:22:47.580Z,98733.13
2023-10-21T13:25:19.097Z,98743.94
2023-10-21T13:27:48.957Z,98741.22
2023-10-21T13:30:16.869Z,98734.94
2023-10-21T13:32:46.929Z,98736.91
2023-10-21T13:35:16.335Z,98740.69
2023-10-21T13:37:46.868Z,98749.41
2023-10-21T13:40:16.721Z,98737.25
2023-10-21T13:42:46.752Z,98745.78
2023-10-21T13:45:21.547Z,98739.97
2023-10-21T13:47:50.409Z,98757.25
2023-10-21T13:50:19.404Z,98760.25
2023-10-21T13:52:47.711Z,98750.31
2023-10-21T13:55:17.397Z,98744.09
2023-10-21T13:57:46.424Z,98754.56
2023-10-21T14:00:35.040Z,98764.22
2023-10-21T14:03:09.883Z,98750.75
2023-10-21T14:05:39.870Z,98774.25
2023-10-21T14:08:12.416Z,98767.03
2023-10-21T14:10:44.153Z,98776.09
2023-10-21T14:13:16.801Z,98770.31
2023-10-21T14:15:45.800Z,98785.44
2023-10-21T14:18:13.670Z,98766.66
2023-10-21T14:20:42.335Z,98788.03
2023-10-21T14:23:11.081Z,98794.72
2023-10-21T14:25:40.868Z,98791.34
2023-10-21T14:28:13.444Z,98796.91
2023-10-21T14:30:43.789Z,98796.16
2023-10-21T14:33:13.486Z,98796.16
2023-10-21T14:35:41.784Z,98784.28
2023-10-21T14:38:09.957Z,98794.41
2023-10-21T14:40:39.417Z,98797.03
2023-10-21T14:43:08.968Z,98806.09
2023-10-21T14:45:38.812Z,98797.16
2023-10-21T14:48:08.529Z,98798.97
2023-10-21T14:50:36.491Z,98810.84
2023-10-21T14:53:04.980Z,98816.41
2023-10-21T14:55:48.275Z,98807.47
2023-10-21T14:58:23.542Z,98798.66
2023-10-21T15:00:54.014Z,98813.28
2023-10-21T15:03:23.516Z,98816.88
2023-10-21T15:05:52.690Z,98821.72
2023-10-21T15:08:22.366Z,98834.53
2023-10-21T15:10:52.415Z,98829.56
2023-10-21T15:13:20.537Z,98822.59
2023-10-21T15:15:49.874Z,98835.69
2023-10-21T15:18:19.898Z,98834.03
2023-10-21T15:20:46.707Z,98845.50
2023-10-21T15:23:14.460Z,98848.41
2023-10-21T15:25:42.228Z,98838.22
2023-10-21T15:28:10.009Z,98842.09
2023-10-21T15:30:37.915Z,98846.94
2023-10-21T15:33:05.990Z,98842.97
2023-10-21T15:35:35.566Z,98856.81
2023-10-21T15:38:04.610Z,98851.69
2023-10-21T15:40:34.101Z,98844.41
2023-10-21T15:43:01.851Z,98843.31
2023-10-21T15:45:29.668Z,98842.47
2023-10-21T15:48:00.151Z,98850.44
2023-10-21T15:50:27.902Z,98857.31
2023-10-21T15:52:57.279Z,98863.41
2023-10-21T15:55:27.164Z,98861.59
2023-10-21T15:57:54.964Z,98866.44
2023-10-21T16:00:22.848Z,98861.34
2023-10-21T16:02:51.368Z,98869.06
2023-10-21T16:05:19.307Z,98880.50
2023-10-21T16:07:57.851Z,98866.50
2023-10-21T16:10:27.635Z,98868.66
2023-10-21T16:12:55.411Z,98872.41
2023-10-21T16:15:23.252Z,98882.72
2023-10-21T16:17:51.182Z,98884.81
2023-10-21T16:20:19.601Z,98890.03
2023-10-21T16:22:49.030Z,98892.38
2023-10-21T16:25:17.191Z,98887.75
2023-10-21T16:27:46.344Z,98889.94
2023-10-21T16:30:14.661Z,98893.81
2023-10-21T16:32:43.165Z,98895.34
2023-10-21T16:35:11.968Z,98902.09
2023-10-21T16:37:39.909Z,98910.34
2023-10-21T16:40:09.384Z,98905.56
2023-10-21T16:42:37.763Z,98913.97
2023-10-21T16:45:08.512Z,98902.69
2023-10-21T16:47:36.345Z,98918.53
2023-10-21T16:50:04.357Z,98915.63
2023-10-21T16:52:32.097Z,98910.94
2023-10-21T16:55:01.408Z,98923.47
2023-10-21T16:57:29.277Z,98924.44
2023-10-21T16:59:57.153Z,98932.00
2023-10-21T17:02:26.357Z,98930.22
2023-10-21T17:04:54.160Z,98929.38
2023-10-21T17:07:21.960Z,98930.47
2023-10-21T17:09:51.588Z,98942.59
2023-10-21T17:12:19.431Z,98940.94
2023-10-21T17:14:47.240Z,98945.09
2023-10-21T17:17:15.024Z,98945.34
2023-10-21T17:19:44.156Z,98958.97
2023-10-21T17:22:11.991Z,98950.72
2023-10-21T17:24:39.916Z,98959.53
2023-10-21T17:27:07.709Z,98951.13
2023-10-21T17:29:37.759Z,98953.59
2023-10-21T17:32:06.543Z,98950.44
2023-10-21T17:34:34.421Z,98961.19
2023-10-21T17:37:04.681Z,98956.06
2023-10-21T17:39:32.757Z,98955.81
2023-10-21T17:42:02.383Z,98947.53
2023-10-21T17:44:32.602Z,98954.84
2023-10-21T17:47:01.128Z,98958.69
2023-10-21T17:49:29.124Z,98958.84
2023-10-21T17:51:58.369Z,98956.63
2023-10-21T17:54:27.910Z,98959.53
2023-10-21T17:56:55.682Z,98961.56
2023-10-21T17:59:23.483Z,98960.06
2023-10-21T18:01:51.461Z,98966.28
2023-10-21T18:04:19.550Z,98963.09
2023-10-21T18:06:47.452Z,98970.25
2023-10-21T18:09:15.394Z,98963.78
2023-10-21T18:11:44.704Z,98960.50
2023-10-21T18:14:12.512Z,98959.53
2023-10-21T18:16:42.057Z,98966.25
2023-10-21T18:19:10.159Z,98967.09
2023-10-21T18:21:38.157Z,98973.41
2023-10-21T18:24:06.599Z,98974.25
2023-10-21T18:26:34.632Z,98970.00
2023-10-21T18:29:04.067Z,98983.88
2023-10-21T18:31:32.000Z,98982.66
2023-10-21T18:33:59.882Z,98994.59
2023-10-21T18:36:27.822Z,98982.22
2023-10-21T18:38:55.700Z,98986.34
2023-10-21T18:41:23.975Z,98983.59
2023-10-21T18:43:51.850Z,98990.75
2023-10-21T18:46:21.058Z,98992.41
2023-10-21T18:48:48.958Z,98996.78
2023-10-21T18:51:23.230Z,98992.94
2023-10-21T18:53:51.551Z,98997.22
2023-10-21T18:56:19.345Z,98996.41
2023-10-21T18:58:47.258Z,98995.56
2023-10-21T19:01:15.157Z,98997.47
2023-10-21T19:03:44.324Z,98988.41
2023-10-21T19:06:12.238Z,99000.38
2023-10-21T19:08:40.124Z,99005.06
2023-10-21T19:11:08.158Z,99003.13
2023-10-21T19:13:37.137Z,99002.31
2023-10-21T19:16:05.708Z,99000.94
2023-10-21T19:18:33.578Z,99005.22
2023-10-21T19:21:07.377Z,99002.19
2023-10-21T19:23:35.435Z,99001.75
2023-10-21T19:26:03.295Z,99001.19
2023-10-21T19:28:31.410Z,99006.56
2023-10-21T19:31:05.541Z,99005.59
2023-10-21T19:33:33.439Z,99012.59
2023-10-21T19:36:01.152Z,99013.69
2023-10-21T19:38:30.311Z,99015.63
2023-10-21T19:40:58.091Z,99018.22
2023-10-21T19:43:25.900Z,99014.09
2023-10-21T19:45:53.770Z,99009.28
2023-10-21T19:48:21.742Z,99006.91
2023-10-21T19:50:49.628Z,98998.38
2023-10-21T19:53:17.441Z,99012.16
2023-10-21T19:55:54.924Z,99009.94
2023-10-21T19:58:24.012Z,99013.91
2023-10-21T20:00:55.972Z,99019.28
2023-10-21T20:03:28.551Z,99018.75
2023-10-21T20:05:56.783Z,99010.28
2023-10-21T20:08:24.909Z,99015.66
2023-10-21T20:11:03.339Z,98997.47
2023-10-21T20:13:31.454Z,99007.66
2023-10-21T20:15:59.268Z,99016.84
2023-10-21T20:18:27.137Z,99010.66
2023-10-21T20:20:55.109Z,99007.34
2023-10-21T20:23:23.268Z,99013.78
2023-10-21T20:25:51.029Z,99019.97
2023-10-21T20:28:20.146Z,99013.09
2023-10-21T20:30:48.345Z,99019.16
2023-10-21T20:33:16.453Z,99022.16
2023-10-21T20:35:45.507Z,99018.56
2023-10-21T20:38:16.508Z,99017.78
2023-10-21T20:40:44.291Z,99023.81
2023-10-21T20:43:12.094Z,99026.56
2023-10-21T20:45:41.384Z,99030.94
2023-10-21T20:48:09.730Z,99032.03
2023-10-21T20:50:42.114Z,99024.31
2023-10-21T20:53:10.026Z,99019.66
2023-10-21T20:55:38.789Z,99029.53
2023-10-21T20:58:07.017Z,99033.56
2023-10-21T21:00:36.073Z,99032.16
2023-10-21T21:03:06.583Z,99029.53
2023-10-21T21:05:35.439Z,99040.84
2023-10-21T21:08:05.234Z,99036.72
2023-10-21T21:10:33.214Z,99027.09
2023-10-21T21:13:01.920Z,99034.38
2023-10-21T21:15:29.982Z,99035.06
2023-10-21T21:17:58.302Z,99033.66
2023-10-21T21:20:27.454Z,99023.75
2023-10-21T21:22:55.283Z,99039.94
2023-10-21T21:25:23.211Z,99047.66
2023-10-21T21:27:51.158Z,99046.72
2023-10-21T21:30:19.332Z,99044.38
2023-10-21T21:32:47.356Z,99035.56
2023-10-21T21:35:15.425Z,99025.38
2023-10-21T21:37:44.536Z,99036.66
2023-10-21T21:40:12.817Z,99028.97
2023-10-21T21:42:40.845Z,99032.63
2023-10-21T21:45:09.874Z,99025.66
2023-10-21T21:47:37.909Z,99018.53
2023-10-21T21:50:06.545Z,99029.78
2023-10-21T21:52:34.671Z,99037.75
2023-10-21T21:55:03.846Z,99042.28
2023-10-21T21:57:31.675Z,99038.25
2023-10-21T21:59:59.444Z,99041.41
2023-10-21T22:02:28.852Z,99049.25
2023-10-21T22:04:56.636Z,99042.28
2023-10-21T22:07:25.942Z,99044.63
2023-10-21T22:09:54.458Z,99046.97
2023-10-21T22:12:23.710Z,99047.16
2023-10-21T22:14:51.499Z,99063.63
2023-10-21T22:17:19.274Z,99044.00
2023-10-21T22:19:47.987Z,99041.56
2023-10-21T22:22:15.762Z,99008.31
2023-10-21T22:24:43.529Z,99051.81
2023-10-21T22:27:15.498Z,99039.56
2023-10-21T22:29:45.893Z,99047.13
2023-10-21T22:32:13.919Z,99052.72
2023-10-21T22:34:41.711Z,99045.28
2023-10-21T22:37:09.514Z,99046.38
2023-10-21T22:39:38.061Z,99052.03
2023-10-21T22:42:07.665Z,99060.69
2023-10-21T22:44:36.222Z,99061.97
2023-10-21T22:47:07.011Z,99075.72
2023-10-21T22:49:34.854Z,99068.00
2023-10-21T22:52:02.787Z,99073.09
2023-10-21T22:54:31.160Z,99077.38
2023-10-21T22:56:59.182Z,99072.16
2023-10-21T22:59:26.913Z,99068.56
2023-10-21T23:01:54.693Z,99082.59
2023-10-21T23:04:24.213Z,99067.19
2023-10-21T23:06:52.911Z,99079.03
2023-10-21T23:09:29.948Z,99091.13
2023-10-21T23:11:58.002Z,99091.13
2023-10-21T23:14:25.805Z,99092.22
2023-10-21T23:16:53.617Z,99100.88
2023-10-21T23:19:23.554Z,99091.50
2023-10-21T23:21:51.684Z,99099.25
2023-10-21T23:24:19.506Z,99100.72
2023-10-21T23:26:47.277Z,99101.16
2023-10-21T23:29:15.067Z,99091.66
2023-10-21T23:31:42.878Z,99101.41
2023-10-21T23:34:10.749Z,99104.03
2023-10-21T23:36:41.187Z,99105.00
2023-10-21T23:39:12.346Z,99116.41
2023-10-21T23:41:41.256Z,99115.44
2023-10-21T23:44:09.106Z,99127.91
2023-10-21T23:46:37.262Z,99127.81
2023-10-21T23:49:05.380Z,99128.50
2023-10-21T23:51:33.180Z,99130.41
2023-10-21T23:54:02.286Z,99134.53
2023-10-21T23:56:30.174Z,99121.63
2023-10-21T23:58:57.920Z,99130.16
